Time;durP1;ratioP1;P1;durP2;ratioP2;P2;SDS_P1;SDS_P2;PMS_P1;PMS_P2;Temp;Humidity;BMP_temperature;BMP_pressure;BME280_temperature;BME280_humidity;BME280_pressure;Samples;Min_cycle;Max_cycle;Signal;HPM_P1;HPM_P2
2023/06/26 00:02:15;;;;;;;6.10;5.33;;;15.70;99.90;;;;;;5103839;27;20489;-79
2023/06/26 00:04:44;;;;;;;6.67;5.97;;;15.60;99.90;;;;;;5107893;28;20489;-77
2023/06/26 00:07:11;;;;;;;6.27;5.30;;;15.60;99.90;;;;;;5106163;28;20462;-76
2023/06/26 00:09:38;;;;;;;6.43;5.93;;;15.60;99.90;;;;;;5104102;27;20475;-79
2023/06/26 00:12:06;;;;;;;5.67;5.17;;;15.70;99.90;;;;;;5103309;28;20476;-77
2023/06/26 00:14:34;;;;;;;6.17;5.63;;;15.70;99.90;;;;;;5102601;28;20488;-77
2023/06/26 00:17:01;;;;;;;6.90;5.90;;;15.70;99.90;;;;;;5103048;28;20871;-79
2023/06/26 00:19:28;;;;;;;6.57;4.90;;;15.60;99.90;;;;;;5100117;28;20561;-77
2023/06/26 00:21:55;;;;;;;6.80;6.10;;;15.60;99.90;;;;;;5101742;28;20455;-78
2023/06/26 00:24:22;;;;;;;6.93;6.33;;;15.50;99.90;;;;;;5106938;28;20532;-77
2023/06/26 00:26:49;;;;;;;7.70;5.60;;;15.70;99.90;;;;;;5102024;28;20451;-78
2023/06/26 00:29:16;;;;;;;5.90;5.23;;;15.60;99.90;;;;;;5108546;28;20439;-77
2023/06/26 00:31:45;;;;;;;5.10;4.70;;;15.60;99.90;;;;;;5098649;28;20522;-78
2023/06/26 00:34:12;;;;;;;5.87;5.37;;;15.40;99.90;;;;;;5102935;27;20523;-79
2023/06/26 00:36:39;;;;;;;5.47;5.00;;;15.40;99.90;;;;;;5107831;28;20863;-77
2023/06/26 00:39:06;;;;;;;5.83;5.33;;;15.30;99.90;;;;;;5106128;28;20483;-79
2023/06/26 00:41:33;;;;;;;6.43;5.50;;;15.30;99.90;;;;;;5107914;28;20478;-78
2023/06/26 00:44:00;;;;;;;7.17;4.67;;;15.20;99.90;;;;;;5106036;28;20538;-77
2023/06/26 00:46:27;;;;;;;8.10;4.50;;;15.30;99.90;;;;;;5107412;28;20475;-77
2023/06/26 00:48:56;;;;;;;7.10;5.40;;;15.20;99.90;;;;;;5099372;28;20555;-77
2023/06/26 00:51:23;;;;;;;5.97;5.10;;;15.20;99.90;;;;;;5109342;28;20706;-78
2023/06/26 00:53:50;;;;;;;5.47;4.93;;;15.20;99.90;;;;;;5114370;28;20439;-78
2023/06/26 00:56:19;;;;;;;6.07;5.40;;;15.20;99.90;;;;;;5108758;28;20516;-78
2023/06/26 00:58:46;;;;;;;4.30;3.90;;;15.20;99.90;;;;;;5103557;28;20490;-78
2023/06/26 01:01:15;;;;;;;8.30;4.57;;;15.20;99.90;;;;;;5106736;28;20471;-78
2023/06/26 01:03:43;;;;;;;6.13;5.53;;;15.20;99.90;;;;;;5104247;28;20458;-77
2023/06/26 01:06:14;;;;;;;6.27;5.30;;;15.20;99.90;;;;;;5104506;28;20552;-77
2023/06/26 01:08:42;;;;;;;5.17;4.67;;;15.20;99.90;;;;;;5101740;28;20484;-78
2023/06/26 01:11:10;;;;;;;6.13;5.53;;;15.20;99.90;;;;;;5102227;28;20463;-76
2023/06/26 01:13:37;;;;;;;7.77;6.10;;;15.20;99.90;;;;;;5103360;28;21132;-78
2023/06/26 01:16:06;;;;;;;7.13;5.20;;;15.10;99.90;;;;;;5104219;27;20538;-78
2023/06/26 01:18:35;;;;;;;7.13;5.60;;;15.10;99.90;;;;;;5107060;28;20455;-78
2023/06/26 01:21:04;;;;;;;6.57;5.50;;;15.00;99.90;;;;;;5100007;28;20490;-77
2023/06/26 01:23:39;;;;;;;6.47;5.50;;;15.10;99.90;;;;;;5106394;28;20538;-80
2023/06/26 01:26:18;;;;;;;5.90;5.40;;;15.00;99.90;;;;;;5099606;28;20574;-77
2023/06/26 01:28:46;;;;;;;8.47;5.90;;;15.00;99.90;;;;;;5102803;28;21208;-79
2023/06/26 01:31:14;;;;;;;6.67;6.07;;;15.00;99.90;;;;;;5101604;28;20482;-80
2023/06/26 01:33:41;;;;;;;6.63;5.00;;;14.90;99.90;;;;;;5104072;27;20602;-78
2023/06/26 01:36:09;;;;;;;6.60;5.67;;;14.80;99.90;;;;;;5106513;28;20486;-77
2023/06/26 01:38:36;;;;;;;7.03;5.30;;;14.80;99.90;;;;;;5102662;28;20872;-77
2023/06/26 01:41:04;;;;;;;7.10;5.37;;;14.80;99.90;;;;;;5105750;28;20475;-78
2023/06/26 01:43:44;;;;;;;7.93;6.03;;;14.90;99.90;;;;;;5105109;28;20458;-77
2023/06/26 01:46:26;;;;;;;6.57;5.23;;;14.80;99.90;;;;;;5106208;27;20478;-76
2023/06/26 01:49:00;;;;;;;5.40;4.07;;;14.70;99.90;;;;;;5102986;28;20458;-76
2023/06/26 01:51:32;;;;;;;7.00;4.97;;;14.70;99.90;;;;;;5102843;28;20508;-77
2023/06/26 01:54:01;;;;;;;4.80;4.40;;;14.60;99.90;;;;;;5102744;28;20453;-79
2023/06/26 01:56:30;;;;;;;5.50;5.00;;;14.60;99.90;;;;;;5101841;28;20498;-76
2023/06/26 01:59:00;;;;;;;5.17;4.67;;;14.60;99.90;;;;;;5102238;28;20506;-77
2023/06/26 02:01:27;;;;;;;5.50;4.83;;;14.50;99.90;;;;;;5105658;28;20482;-77
2023/06/26 02:03:54;;;;;;;5.20;4.73;;;14.50;99.90;;;;;;5102264;28;20454;-78
2023/06/26 02:06:21;;;;;;;6.70;5.03;;;14.70;99.90;;;;;;5104200;28;21060;-77
2023/06/26 02:08:48;;;;;;;6.00;4.57;;;14.90;99.90;;;;;;5102071;28;20442;-79
2023/06/26 02:11:15;;;;;;;5.70;5.10;;;14.90;99.90;;;;;;5102832;28;20459;-78
2023/06/26 02:13:42;;;;;;;7.33;5.83;;;14.90;99.90;;;;;;5106798;28;20503;-77
2023/06/26 02:16:10;;;;;;;5.57;5.07;;;14.90;99.90;;;;;;5102680;28;20466;-77
2023/06/26 02:18:37;;;;;;;9.33;5.10;;;14.80;99.90;;;;;;5114068;28;20458;-78
2023/06/26 02:21:05;;;;;;;7.20;4.60;;;14.70;99.90;;;;;;5110520;28;20443;-78
2023/06/26 02:23:32;;;;;;;5.43;4.93;;;14.70;99.90;;;;;;5107592;28;20508;-77
2023/06/26 02:25:59;;;;;;;6.80;6.20;;;14.60;99.90;;;;;;5094049;28;20542;-77
2023/06/26 02:28:26;;;;;;;5.17;4.67;;;14.50;99.90;;;;;;5106820;28;20453;-78
2023/06/26 02:30:53;;;;;;;6.43;5.27;;;14.40;99.90;;;;;;5099166;28;20524;-76
2023/06/26 02:33:21;;;;;;;5.37;4.90;;;14.50;99.90;;;;;;5105603;28;20503;-77
2023/06/26 02:35:50;;;;;;;5.20;4.77;;;14.50;99.90;;;;;;5100808;28;20463;-79
2023/06/26 02:38:16;;;;;;;6.10;5.50;;;14.40;99.90;;;;;;5101530;28;20526;-78
2023/06/26 02:40:44;;;;;;;8.30;7.53;;;14.40;99.90;;;;;;5103056;28;20459;-77
2023/06/26 02:43:10;;;;;;;5.40;4.93;;;14.40;99.90;;;;;;5100750;27;20508;-76
2023/06/26 02:45:37;;;;;;;5.30;4.80;;;14.40;99.90;;;;;;5104721;28;21128;-77
2023/06/26 02:48:05;;;;;;;6.10;5.03;;;14.40;99.90;;;;;;5107089;28;20508;-78
2023/06/26 02:50:33;;;;;;;6.70;4.20;;;14.40;99.90;;;;;;5107350;28;20989;-78
2023/06/26 02:53:00;;;;;;;5.57;5.07;;;14.30;99.90;;;;;;5103810;28;20479;-78
2023/06/26 02:55:27;;;;;;;7.23;6.07;;;14.30;99.90;;;;;;5117102;28;20516;-77
2023/06/26 02:57:54;;;;;;;8.30;5.67;;;14.20;99.90;;;;;;5104414;28;20490;-76
2023/06/26 03:00:21;;;;;;;5.70;5.20;;;14.10;99.90;;;;;;5100092;28;20946;-78
2023/06/26 03:02:48;;;;;;;5.60;5.10;;;14.20;99.90;;;;;;5106493;28;20969;-77
2023/06/26 03:05:15;;;;;;;5.00;4.60;;;14.20;99.90;;;;;;5109246;28;20474;-78
2023/06/26 03:07:43;;;;;;;6.30;4.47;;;14.30;99.90;;;;;;5106125;28;20462;-79
2023/06/26 03:10:10;;;;;;;6.47;5.60;;;14.10;99.90;;;;;;5108046;27;20981;-78
2023/06/26 03:12:37;;;;;;;9.50;4.87;;;14.10;99.90;;;;;;5107381;28;20470;-77
2023/06/26 03:15:05;;;;;;;6.37;5.70;;;14.20;99.90;;;;;;5105971;28;20586;-77
2023/06/26 03:17:31;;;;;;;5.73;5.07;;;14.10;99.90;;;;;;5106755;27;20450;-77
2023/06/26 03:19:58;;;;;;;8.97;5.57;;;14.10;99.90;;;;;;5104168;28;21039;-77
2023/06/26 03:22:27;;;;;;;4.63;4.23;;;14.20;99.90;;;;;;5102107;27;20479;-76
2023/06/26 03:24:55;;;;;;;8.30;5.37;;;14.30;99.90;;;;;;5105467;28;21000;-77
2023/06/26 03:27:22;;;;;;;6.43;4.97;;;14.30;99.90;;;;;;5101497;28;20491;-79
2023/06/26 03:29:49;;;;;;;6.80;5.63;;;14.30;99.90;;;;;;5104082;28;20482;-77
2023/06/26 03:32:16;;;;;;;6.03;5.53;;;14.40;99.90;;;;;;5108705;28;20471;-76
2023/06/26 03:34:43;;;;;;;8.67;6.87;;;14.40;99.90;;;;;;5100815;28;20473;-79
2023/06/26 03:37:10;;;;;;;5.97;5.40;;;14.50;99.90;;;;;;5106814;28;20465;-78
2023/06/26 03:39:37;;;;;;;6.30;4.60;;;14.60;99.90;;;;;;5098129;28;20974;-78
2023/06/26 03:42:07;;;;;;;6.20;4.70;;;14.60;99.90;;;;;;5106802;27;20955;-80
2023/06/26 03:44:34;;;;;;;5.30;4.80;;;14.60;99.90;;;;;;5111213;27;20445;-77
2023/06/26 03:47:00;;;;;;;5.93;5.40;;;14.60;99.90;;;;;;5103552;27;20522;-76
2023/06/26 03:49:27;;;;;;;9.93;5.13;;;14.80;99.90;;;;;;5100291;28;20500;-78
2023/06/26 03:51:54;;;;;;;4.70;4.20;;;14.80;99.90;;;;;;5104000;27;20475;-78
2023/06/26 03:54:21;;;;;;;5.80;5.20;;;14.80;99.90;;;;;;5110882;27;20474;-79
2023/06/26 03:56:48;;;;;;;5.57;4.63;;;14.80;99.90;;;;;;5106634;28;20545;-76
2023/06/26 03:59:17;;;;;;;6.47;4.40;;;14.80;99.90;;;;;;5106696;28;20504;-79
2023/06/26 04:01:43;;;;;;;6.00;5.23;;;15.00;99.90;;;;;;5103590;27;21336;-78
2023/06/26 04:04:10;;;;;;;5.07;4.63;;;15.00;99.90;;;;;;5107481;27;20471;-78
2023/06/26 04:06:37;;;;;;;5.93;5.43;;;15.10;99.90;;;;;;5107943;28;20555;-77
2023/06/26 04:09:04;;;;;;;10.23;5.50;;;15.10;99.90;;;;;;5106223;28;20516;-78
2023/06/26 04:11:31;;;;;;;5.90;5.40;;;15.20;99.90;;;;;;5108062;28;20555;-77
2023/06/26 04:13:58;;;;;;;7.33;4.83;;;15.10;99.90;;;;;;5105477;28;20470;-79
2023/06/26 04:16:27;;;;;;;6.40;5.80;;;15.20;99.90;;;;;;5104736;28;20508;-76
2023/06/26 04:18:56;;;;;;;6.70;5.70;;;15.40;99.90;;;;;;5107452;27;20491;-76
2023/06/26 04:21:25;;;;;;;4.50;3.77;;;15.40;99.90;;;;;;5099132;28;20454;-79
2023/06/26 04:23:52;;;;;;;6.63;5.73;;;15.60;99.90;;;;;;5101445;28;20945;-77
2023/06/26 04:26:19;;;;;;;7.27;6.57;;;15.60;99.90;;;;;;5103682;28;20526;-77
2023/06/26 04:28:46;;;;;;;6.37;5.77;;;15.90;99.90;;;;;;5102037;28;20474;-77
2023/06/26 04:31:13;;;;;;;5.27;4.83;;;16.10;99.90;;;;;;5103822;28;20500;-78
2023/06/26 04:33:41;;;;;;;8.10;5.87;;;16.30;99.90;;;;;;5101557;27;20931;-77
2023/06/26 04:36:08;;;;;;;6.40;5.23;;;16.40;99.90;;;;;;5104969;28;21402;-76
2023/06/26 04:38:35;;;;;;;6.23;5.40;;;16.40;99.90;;;;;;5104649;28;20484;-80
2023/06/26 04:41:02;;;;;;;7.20;5.10;;;16.50;99.90;;;;;;5103523;28;21051;-76
2023/06/26 04:43:29;;;;;;;7.00;5.10;;;16.70;99.90;;;;;;5111606;27;20471;-76
2023/06/26 04:45:58;;;;;;;8.10;6.87;;;16.70;99.90;;;;;;5104845;27;20448;-78
2023/06/26 04:48:27;;;;;;;4.97;4.57;;;16.70;99.90;;;;;;5104166;28;20471;-77
2023/06/26 04:50:55;;;;;;;9.53;8.63;;;16.90;99.90;;;;;;5101790;28;20447;-75
2023/06/26 04:53:23;;;;;;;9.83;7.60;;;17.00;99.90;;;;;;5104519;28;21136;-79
2023/06/26 04:55:50;;;;;;;10.70;8.10;;;17.00;99.90;;;;;;5102912;28;21013;-76
2023/06/26 04:58:17;;;;;;;10.47;9.37;;;17.00;99.90;;;;;;5104104;28;20553;-79
2023/06/26 05:00:44;;;;;;;9.03;6.63;;;16.90;99.90;;;;;;5102548;28;20504;-77
2023/06/26 05:03:12;;;;;;;6.23;5.60;;;17.00;99.90;;;;;;5110365;27;20495;-77
2023/06/26 05:05:39;;;;;;;8.43;6.10;;;17.00;99.90;;;;;;5103870;28;20879;-79
2023/06/26 05:08:18;;;;;;;6.73;6.23;;;16.80;99.90;;;;;;5105473;28;20503;-77
2023/06/26 05:10:45;;;;;;;6.13;5.63;;;16.90;99.90;;;;;;5103674;28;20579;-77
2023/06/26 05:13:14;;;;;;;5.70;5.20;;;17.20;99.90;;;;;;5103534;28;21067;-76
2023/06/26 05:15:43;;;;;;;5.60;5.10;;;17.40;99.90;;;;;;5099484;28;20459;-75
2023/06/26 05:18:10;;;;;;;6.33;5.73;;;17.60;99.90;;;;;;5107004;28;20491;-76
2023/06/26 05:20:38;;;;;;;6.03;5.53;;;17.70;99.90;;;;;;5103049;28;20490;-76
2023/06/26 05:23:05;;;;;;;5.90;5.30;;;18.00;99.90;;;;;;5105013;28;20557;-77
2023/06/26 05:25:34;;;;;;;9.77;6.80;;;18.10;99.90;;;;;;5095117;28;21029;-77
2023/06/26 05:28:02;;;;;;;6.73;6.00;;;18.20;99.90;;;;;;5100300;28;20489;-75
2023/06/26 05:30:30;;;;;;;6.33;5.70;;;18.30;99.90;;;;;;5104239;28;20542;-78
2023/06/26 05:33:00;;;;;;;6.90;6.20;;;18.40;99.90;;;;;;5097979;27;20546;-79
2023/06/26 05:35:30;;;;;;;6.43;5.83;;;18.60;99.90;;;;;;5102324;28;20465;-77
2023/06/26 05:37:57;;;;;;;6.20;5.80;;;18.70;99.90;;;;;;5102581;28;20469;-77
2023/06/26 05:40:25;;;;;;;5.67;4.93;;;18.90;99.90;;;;;;5107346;28;21020;-75
2023/06/26 05:42:55;;;;;;;5.10;4.60;;;19.10;99.90;;;;;;5093111;28;20463;-79
2023/06/26 05:45:21;;;;;;;6.00;4.97;;;19.30;99.90;;;;;;5098385;28;20474;-75
2023/06/26 05:47:49;;;;;;;5.93;5.20;;;19.60;99.90;;;;;;5101570;28;20514;-78
2023/06/26 05:50:19;;;;;;;5.43;5.03;;;19.40;99.90;;;;;;5104592;27;20470;-77
2023/06/26 05:52:47;;;;;;;6.40;5.83;;;19.60;99.90;;;;;;5105278;28;20442;-76
2023/06/26 05:55:14;;;;;;;6.03;5.53;;;19.70;99.90;;;;;;5104000;28;20470;-77
2023/06/26 05:57:42;;;;;;;6.63;4.90;;;19.70;99.90;;;;;;5101892;28;20482;-76
2023/06/26 06:00:13;;;;;;;6.50;5.90;;;20.00;99.90;;;;;;5103238;28;20494;-77
2023/06/26 06:02:41;;;;;;;6.57;5.90;;;20.20;99.90;;;;;;5098829;28;20493;-79
2023/06/26 06:05:08;;;;;;;6.00;5.17;;;20.30;99.90;;;;;;5106288;28;20833;-77
2023/06/26 06:07:36;;;;;;;5.60;5.20;;;20.30;99.80;;;;;;5101632;28;20515;-76
2023/06/26 06:10:05;;;;;;;5.57;5.17;;;20.40;99.40;;;;;;5101163;28;21000;-76
2023/06/26 06:12:31;;;;;;;6.23;5.40;;;20.60;99.50;;;;;;5107244;28;20539;-77
2023/06/26 06:14:58;;;;;;;5.23;4.73;;;20.30;99.30;;;;;;5101088;28;20897;-76
2023/06/26 06:17:27;;;;;;;6.60;6.10;;;20.50;99.90;;;;;;5105674;28;20460;-76
2023/06/26 06:19:54;;;;;;;7.10;6.53;;;20.80;99.90;;;;;;5103409;28;20458;-77
2023/06/26 06:22:21;;;;;;;4.90;4.50;;;20.90;99.00;;;;;;5103011;28;20879;-78
2023/06/26 06:24:49;;;;;;;5.10;4.70;;;21.00;95.30;;;;;;5105569;28;20803;-76
2023/06/26 06:27:16;;;;;;;5.83;5.23;;;21.20;95.30;;;;;;5100854;28;20544;-78
2023/06/26 06:29:43;;;;;;;5.47;4.97;;;21.40;95.20;;;;;;5105361;28;20493;-76
2023/06/26 06:32:10;;;;;;;6.60;5.90;;;21.60;93.50;;;;;;5100892;28;20451;-78
2023/06/26 06:34:38;;;;;;;5.57;4.83;;;21.60;92.50;;;;;;5099254;28;20463;-77
2023/06/26 06:37:05;;;;;;;6.33;5.80;;;21.70;92.30;;;;;;5105598;28;20480;-79
2023/06/26 06:39:32;;;;;;;5.47;4.97;;;21.60;91.50;;;;;;5107284;28;20474;-79
2023/06/26 06:41:59;;;;;;;5.73;5.20;;;21.70;91.30;;;;;;5108599;28;21173;-76
2023/06/26 06:44:26;;;;;;;6.03;5.43;;;22.00;90.60;;;;;;5106208;27;20498;-77
2023/06/26 06:46:53;;;;;;;5.63;5.23;;;22.50;90.90;;;;;;5104453;28;20514;-77
2023/06/26 06:49:20;;;;;;;6.10;5.53;;;22.70;91.40;;;;;;5109118;28;20479;-77
2023/06/26 06:51:48;;;;;;;7.77;5.23;;;22.90;90.40;;;;;;5104869;28;20548;-77
2023/06/26 06:54:17;;;;;;;5.63;5.13;;;22.70;89.20;;;;;;5106923;28;20472;-77
2023/06/26 06:56:44;;;;;;;5.63;5.17;;;22.90;90.80;;;;;;5105109;28;20998;-79
2023/06/26 06:59:11;;;;;;;6.13;5.60;;;23.00;89.10;;;;;;5106811;28;20470;-77
2023/06/26 07:01:38;;;;;;;5.10;4.70;;;23.00;90.30;;;;;;5106858;28;20498;-77
2023/06/26 07:04:05;;;;;;;6.20;5.60;;;22.90;90.20;;;;;;5109051;28;21085;-78
2023/06/26 07:06:32;;;;;;;7.87;5.40;;;23.10;90.30;;;;;;5106436;28;20568;-78
2023/06/26 07:09:00;;;;;;;6.90;5.60;;;23.10;91.40;;;;;;5109043;28;20490;-76
2023/06/26 07:11:27;;;;;;;5.47;4.93;;;23.50;91.30;;;;;;5109173;28;20485;-79
2023/06/26 07:13:55;;;;;;;7.60;6.80;;;23.50;91.10;;;;;;5109143;28;20541;-77
2023/06/26 07:16:22;;;;;;;7.70;7.00;;;23.40;91.60;;;;;;5104824;28;20964;-77
2023/06/26 07:18:49;;;;;;;10.40;6.93;;;23.60;91.50;;;;;;5108536;27;20543;-73
2023/06/26 07:21:16;;;;;;;6.67;6.07;;;23.90;91.10;;;;;;5107635;28;20461;-77
2023/06/26 07:23:43;;;;;;;8.77;5.97;;;23.80;89.50;;;;;;5103967;28;21222;-77
2023/06/26 07:26:15;;;;;;;7.33;6.60;;;23.80;89.70;;;;;;5108421;28;20469;-76
2023/06/26 07:28:41;;;;;;;6.70;5.60;;;23.80;85.70;;;;;;5102448;28;20520;-77
2023/06/26 07:31:08;;;;;;;4.63;4.23;;;23.60;89.20;;;;;;5107380;28;20474;-78
2023/06/26 07:33:35;;;;;;;14.87;6.70;;;23.80;83.90;;;;;;5103428;28;20534;-78
2023/06/26 07:36:02;;;;;;;11.00;5.40;;;24.00;83.10;;;;;;5104800;28;20476;-75
2023/06/26 07:38:29;;;;;;;9.90;6.43;;;24.40;83.80;;;;;;5108410;28;20547;-75
2023/06/26 07:40:56;;;;;;;7.03;6.30;;;24.30;84.10;;;;;;5101256;28;20461;-79
2023/06/26 07:43:24;;;;;;;11.30;6.90;;;24.20;80.00;;;;;;5108582;28;20473;-77
2023/06/26 07:45:53;;;;;;;6.00;5.23;;;24.20;80.70;;;;;;5109188;27;20480;-76
2023/06/26 07:48:20;;;;;;;10.60;6.10;;;24.30;86.20;;;;;;5103210;28;20480;-77
2023/06/26 07:50:47;;;;;;;8.13;5.93;;;24.20;84.90;;;;;;5104938;28;20502;-78
2023/06/26 07:53:14;;;;;;;9.73;5.83;;;23.50;80.60;;;;;;5099826;28;20449;-77
2023/06/26 07:55:41;;;;;;;9.60;6.33;;;24.00;84.00;;;;;;5106334;28;21038;-76
2023/06/26 07:58:09;;;;;;;9.20;6.30;;;24.30;79.10;;;;;;5099267;27;20565;-78
2023/06/26 08:00:37;;;;;;;11.37;5.63;;;24.60;76.60;;;;;;5108827;28;20960;-77
2023/06/26 08:03:05;;;;;;;8.90;6.83;;;24.80;75.60;;;;;;5110081;27;20546;-76
2023/06/26 08:05:32;;;;;;;11.80;5.50;;;24.60;77.20;;;;;;5106300;27;20531;-78
2023/06/26 08:07:59;;;;;;;6.13;5.50;;;24.20;74.10;;;;;;5104066;27;20481;-77
2023/06/26 08:10:27;;;;;;;6.73;4.77;;;24.20;75.60;;;;;;5097833;27;20461;-76
2023/06/26 08:12:53;;;;;;;10.33;5.73;;;24.40;72.20;;;;;;5104551;27;20805;-78
2023/06/26 08:15:20;;;;;;;7.00;6.30;;;24.60;71.60;;;;;;5104743;28;20433;-77
2023/06/26 08:17:50;;;;;;;6.20;5.70;;;24.60;72.80;;;;;;5102693;28;20505;-78
2023/06/26 08:20:19;;;;;;;7.83;5.80;;;25.00;74.80;;;;;;5105549;28;20454;-77
2023/06/26 08:22:47;;;;;;;6.83;5.97;;;25.00;70.80;;;;;;5107742;28;20472;-76
2023/06/26 08:25:14;;;;;;;6.00;5.50;;;25.20;77.30;;;;;;5106943;28;20485;-78
2023/06/26 08:27:42;;;;;;;5.47;4.90;;;25.00;70.10;;;;;;5106366;27;20490;-79
2023/06/26 08:30:09;;;;;;;6.63;6.03;;;25.00;69.00;;;;;;5106456;28;21030;-75
2023/06/26 08:32:36;;;;;;;6.47;5.77;;;25.00;71.70;;;;;;5106714;27;20474;-76
2023/06/26 08:35:06;;;;;;;8.30;6.60;;;25.20;69.30;;;;;;5101863;28;20486;-78
2023/06/26 08:37:33;;;;;;;7.13;6.50;;;25.40;69.00;;;;;;5107461;28;21149;-78
2023/06/26 08:40:00;;;;;;;8.10;4.80;;;25.80;74.70;;;;;;5104283;28;20491;-77
2023/06/26 08:42:28;;;;;;;5.87;5.37;;;26.20;74.00;;;;;;5106280;28;20446;-76
2023/06/26 08:44:55;;;;;;;6.57;5.97;;;25.90;69.00;;;;;;5109066;27;20478;-76
2023/06/26 08:47:23;;;;;;;5.77;5.27;;;26.30;68.30;;;;;;5107449;28;20514;-78
2023/06/26 08:49:54;;;;;;;8.23;5.07;;;26.60;63.60;;;;;;5103693;28;21022;-78
2023/06/26 08:52:24;;;;;;;6.90;6.30;;;26.80;67.80;;;;;;5106690;28;20510;-77
2023/06/26 08:54:57;;;;;;;5.43;5.00;;;26.70;66.20;;;;;;5107084;27;20985;-77
2023/06/26 08:57:24;;;;;;;5.97;5.47;;;26.80;62.80;;;;;;5099201;28;20571;-78
2023/06/26 08:59:52;;;;;;;4.93;4.57;;;26.70;63.50;;;;;;5101885;28;20774;-75
2023/06/26 09:02:20;;;;;;;7.10;5.70;;;26.90;59.10;;;;;;5098610;27;20511;-76
2023/06/26 09:04:48;;;;;;;5.03;4.60;;;26.80;58.20;;;;;;5099673;27;21165;-76
2023/06/26 09:07:16;;;;;;;9.90;5.13;;;26.60;58.00;;;;;;5104934;28;20455;-76
2023/06/26 09:09:44;;;;;;;5.30;4.93;;;26.60;56.90;;;;;;5106981;28;20454;-76
2023/06/26 09:12:11;;;;;;;5.33;4.83;;;26.70;58.00;;;;;;5103558;28;20451;-78
2023/06/26 09:14:39;;;;;;;5.47;5.03;;;26.80;64.80;;;;;;5102584;27;20532;-76
2023/06/26 09:17:06;;;;;;;5.67;5.20;;;27.10;60.20;;;;;;5100089;28;20485;-77
2023/06/26 09:19:33;;;;;;;5.30;4.83;;;26.90;56.80;;;;;;5108565;27;20466;-76
2023/06/26 09:22:01;;;;;;;5.17;4.67;;;27.00;54.80;;;;;;5095667;28;20489;-77
2023/06/26 09:24:28;;;;;;;5.30;4.90;;;26.90;55.50;;;;;;5106676;28;20492;-79
2023/06/26 09:26:57;;;;;;;5.23;4.77;;;26.70;56.90;;;;;;5102585;28;20590;-76
2023/06/26 09:29:26;;;;;;;5.90;4.53;;;26.90;57.00;;;;;;5098955;28;20513;-78
2023/06/26 09:31:54;;;;;;;5.03;4.67;;;27.10;53.90;;;;;;5099446;27;20525;-79
2023/06/26 09:34:21;;;;;;;5.20;4.80;;;27.40;54.10;;;;;;5099179;27;20468;-77
2023/06/26 09:36:49;;;;;;;4.93;4.53;;;27.40;52.70;;;;;;5104151;28;20931;-78
2023/06/26 09:39:16;;;;;;;4.00;3.70;;;27.50;54.30;;;;;;5099843;28;20833;-78
2023/06/26 09:41:44;;;;;;;6.13;4.57;;;27.80;55.00;;;;;;5107534;28;20597;-77
2023/06/26 09:44:15;;;;;;;4.53;4.20;;;27.90;54.00;;;;;;5101542;28;20555;-75
2023/06/26 09:46:42;;;;;;;4.80;4.40;;;27.90;53.10;;;;;;5106730;28;20503;-77
2023/06/26 09:49:11;;;;;;;4.23;3.93;;;27.90;52.70;;;;;;5101195;28;20486;-78
2023/06/26 09:51:40;;;;;;;4.87;4.57;;;27.70;51.00;;;;;;5107512;28;20476;-77
2023/06/26 09:54:08;;;;;;;4.97;4.57;;;28.10;49.00;;;;;;5101235;28;21325;-75
2023/06/26 09:56:35;;;;;;;5.53;5.03;;;28.30;52.50;;;;;;5102231;28;20453;-76
2023/06/26 09:59:04;;;;;;;5.93;5.17;;;28.10;49.80;;;;;;5106976;28;20505;-78
2023/06/26 10:01:33;;;;;;;4.87;4.47;;;28.10;46.50;;;;;;5094187;28;20549;-76
2023/06/26 10:04:00;;;;;;;5.50;5.10;;;28.20;50.30;;;;;;5108025;27;20440;-77
2023/06/26 10:06:32;;;;;;;5.63;5.03;;;28.10;52.30;;;;;;5101901;28;20521;-76
2023/06/26 10:09:01;;;;;;;6.40;5.00;;;28.30;49.90;;;;;;5103572;28;20498;-76
2023/06/26 10:11:36;;;;;;;5.50;4.67;;;28.10;48.10;;;;;;5106497;28;20495;-78
2023/06/26 10:14:05;;;;;;;6.60;5.83;;;28.10;46.80;;;;;;5108182;28;20455;-76
2023/06/26 10:16:36;;;;;;;4.50;4.10;;;28.10;47.90;;;;;;5108072;28;20842;-78
2023/06/26 10:19:07;;;;;;;5.30;4.83;;;28.20;47.50;;;;;;5108010;28;20477;-78
2023/06/26 10:21:38;;;;;;;5.40;4.20;;;28.20;46.20;;;;;;5107124;28;20466;-78
2023/06/26 10:24:07;;;;;;;5.20;4.80;;;28.10;46.00;;;;;;5107693;27;20450;-75
2023/06/26 10:26:39;;;;;;;5.13;4.70;;;28.40;47.40;;;;;;5104251;27;20523;-75
2023/06/26 10:29:07;;;;;;;4.60;4.30;;;28.40;52.10;;;;;;5108523;28;20525;-75
2023/06/26 10:31:38;;;;;;;4.90;4.50;;;28.90;51.10;;;;;;5107982;28;20484;-76
2023/06/26 10:34:05;;;;;;;4.60;4.20;;;28.90;47.80;;;;;;5101674;28;20635;-76
2023/06/26 10:36:33;;;;;;;5.33;4.90;;;29.00;44.70;;;;;;5108739;28;20453;-75
2023/06/26 10:39:05;;;;;;;6.07;5.47;;;29.30;46.90;;;;;;5106810;28;20634;-77
2023/06/26 10:41:37;;;;;;;4.53;4.13;;;29.10;45.10;;;;;;5105726;28;20470;-77
2023/06/26 10:44:09;;;;;;;5.03;4.37;;;29.00;47.70;;;;;;5106603;27;20916;-77
2023/06/26 10:46:52;;;;;;;4.33;4.03;;;28.90;45.40;;;;;;5111209;27;20473;-78
2023/06/26 10:49:19;;;;;;;5.13;4.73;;;29.00;44.20;;;;;;5101264;28;20514;-75
2023/06/26 10:51:51;;;;;;;5.43;5.00;;;29.00;44.10;;;;;;5110336;28;20476;-77
2023/06/26 10:54:19;;;;;;;4.20;3.80;;;29.10;48.50;;;;;;5106285;28;20560;-76
2023/06/26 10:56:47;;;;;;;7.60;4.30;;;29.30;42.00;;;;;;5103661;28;20474;-77
2023/06/26 10:59:16;;;;;;;3.97;3.67;;;29.30;42.10;;;;;;5105972;28;20462;-77
2023/06/26 11:01:45;;;;;;;5.37;4.10;;;29.20;41.30;;;;;;5102002;27;20472;-75
2023/06/26 11:04:16;;;;;;;3.90;3.60;;;29.50;44.30;;;;;;5098496;27;20457;-78
2023/06/26 11:06:45;;;;;;;4.20;3.97;;;29.50;41.30;;;;;;5105798;28;20446;-78
2023/06/26 11:09:16;;;;;;;4.63;4.23;;;29.40;40.50;;;;;;5099638;28;20525;-76
2023/06/26 11:12:04;;;;;;;4.23;3.93;;;29.70;40.40;;;;;;5108233;27;20827;-78
2023/06/26 11:14:34;;;;;;;4.83;4.20;;;29.80;43.40;;;;;;5110011;28;20450;-75
2023/06/26 11:17:05;;;;;;;8.47;4.20;;;29.70;41.20;;;;;;5108852;28;20470;-76
2023/06/26 11:19:33;;;;;;;3.70;3.50;;;29.80;43.60;;;;;;5106748;28;20488;-76
2023/06/26 11:22:05;;;;;;;5.43;4.93;;;29.80;41.40;;;;;;5101579;28;20542;-76
2023/06/26 11:24:33;;;;;;;4.20;3.90;;;29.30;40.30;;;;;;5105613;28;20455;-77
2023/06/26 11:27:05;;;;;;;5.83;4.37;;;29.40;41.60;;;;;;5104068;28;20490;-78
2023/06/26 11:29:33;;;;;;;7.10;4.30;;;29.40;40.40;;;;;;5106320;28;20521;-77
2023/06/26 11:32:06;;;;;;;4.20;3.90;;;29.50;38.50;;;;;;5106114;28;20439;-78
2023/06/26 11:34:35;;;;;;;4.80;4.40;;;29.30;37.10;;;;;;5105023;28;20438;-78
2023/06/26 11:37:02;;;;;;;3.80;3.57;;;29.60;40.20;;;;;;5101999;28;20553;-78
2023/06/26 11:39:29;;;;;;;3.93;3.57;;;29.80;42.50;;;;;;5102786;28;20474;-77
2023/06/26 11:41:57;;;;;;;4.70;4.40;;;29.50;39.30;;;;;;5104175;27;20458;-76
2023/06/26 11:44:24;;;;;;;5.10;4.70;;;30.00;36.80;;;;;;5105084;28;20490;-76
2023/06/26 11:46:55;;;;;;;4.87;4.47;;;29.80;40.10;;;;;;5108251;28;20527;-76
2023/06/26 11:49:25;;;;;;;5.77;5.27;;;30.30;38.70;;;;;;5106405;28;20489;-78
2023/06/26 11:51:55;;;;;;;3.90;3.60;;;30.30;38.40;;;;;;5106181;28;20497;-75
2023/06/26 11:54:26;;;;;;;3.90;3.60;;;30.20;40.10;;;;;;5107536;27;20438;-77
2023/06/26 11:56:56;;;;;;;6.07;4.50;;;30.50;43.60;;;;;;5105547;28;20474;-77
2023/06/26 11:59:23;;;;;;;5.37;5.03;;;30.60;39.80;;;;;;5106825;28;20450;-76
2023/06/26 12:01:51;;;;;;;3.80;3.50;;;30.30;39.60;;;;;;5103552;28;20879;-76
2023/06/26 12:04:19;;;;;;;4.47;4.07;;;30.40;37.60;;;;;;5105234;28;20476;-75
2023/06/26 12:06:49;;;;;;;6.33;4.67;;;30.40;36.70;;;;;;5105889;28;21006;-77
2023/06/26 12:09:19;;;;;;;3.50;3.10;;;30.40;43.70;;;;;;5106511;28;20482;-78
2023/06/26 12:11:49;;;;;;;4.53;4.23;;;30.20;40.00;;;;;;5101718;28;20543;-77
2023/06/26 12:14:18;;;;;;;4.50;4.10;;;30.30;36.80;;;;;;5107915;28;20947;-78
2023/06/26 12:16:45;;;;;;;3.80;3.60;;;30.50;38.50;;;;;;5108535;28;20945;-75
2023/06/26 12:19:12;;;;;;;4.90;4.53;;;30.80;36.10;;;;;;5103259;27;20531;-77
2023/06/26 12:21:52;;;;;;;4.00;3.67;;;30.80;34.40;;;;;;5107964;28;20780;-75
2023/06/26 12:24:22;;;;;;;3.87;3.57;;;30.40;32.60;;;;;;5102186;28;20450;-76
2023/06/26 12:26:53;;;;;;;4.20;3.90;;;30.00;33.00;;;;;;5108840;28;20963;-81
2023/06/26 12:29:21;;;;;;;4.83;4.43;;;29.80;33.10;;;;;;5102585;28;20482;-76
2023/06/26 12:31:51;;;;;;;4.27;3.87;;;30.10;34.60;;;;;;5105874;28;20545;-77
2023/06/26 12:34:22;;;;;;;4.10;3.80;;;30.30;34.00;;;;;;5099183;28;20501;-77
2023/06/26 12:36:50;;;;;;;4.70;4.30;;;30.10;34.10;;;;;;5107947;28;20524;-78
2023/06/26 12:39:18;;;;;;;3.97;3.57;;;30.30;34.50;;;;;;5102021;28;20493;-76
2023/06/26 12:41:48;;;;;;;4.17;3.83;;;30.50;36.00;;;;;;5105810;27;20490;-77
2023/06/26 12:44:21;;;;;;;3.20;3.00;;;30.40;33.50;;;;;;5102034;28;20483;-77
2023/06/26 12:46:50;;;;;;;4.00;3.70;;;30.40;33.40;;;;;;5109484;27;20482;-76
2023/06/26 12:49:17;;;;;;;4.70;3.00;;;30.40;31.50;;;;;;5104455;27;20872;-75
2023/06/26 12:51:44;;;;;;;3.97;3.67;;;30.70;33.00;;;;;;5103437;28;20459;-77